createdAt,value
2023-02-08T00:00:41.855Z,95.08984
2023-02-08T00:05:43.634Z,95.22559
2023-02-08T00:10:41.636Z,95.14258
2023-02-08T00:15:44.294Z,95.11035
2023-02-08T00:20:43.299Z,95.25
2023-02-08T00:25:42.313Z,95.00391
2023-02-08T00:30:43.232Z,95.05371
2023-02-08T00:35:42.354Z,94.76172
2023-02-08T00:40:44.101Z,95.02832
2023-02-08T00:45:41.380Z,94.80762
2023-02-08T00:50:43.589Z,94.85742
2023-02-08T00:55:41.608Z,95.02148
2023-02-08T01:00:41.705Z,95.01172
2023-02-08T01:05:45.018Z,94.74023
2023-02-08T01:10:41.630Z,94.78125
2023-02-08T01:15:41.297Z,94.83496
2023-02-08T01:20:42.456Z,94.5957
2023-02-08T01:25:42.286Z,94.63574
2023-02-08T01:30:41.770Z,94.7959
2023-02-08T01:35:43.022Z,94.8457
2023-02-08T01:40:42.847Z,94.7832
2023-02-08T01:45:43.954Z,95.05078
2023-02-08T01:50:46.106Z,94.81445
2023-02-08T01:55:43.438Z,94.99316
2023-02-08T02:00:41.854Z,94.80078
2023-02-08T02:05:46.269Z,94.77539
2023-02-08T02:10:42.403Z,95.125
2023-02-08T02:15:41.391Z,94.875
2023-02-08T02:20:58.288Z,94.66992
2023-02-08T02:26:05.622Z,94.68066
2023-02-08T02:30:58.832Z,94.86035
2023-02-08T02:35:52.182Z,94.67871
2023-02-08T02:40:50.381Z,94.76465
2023-02-08T02:45:49.121Z,94.49316
2023-02-08T02:50:47.255Z,95.12988
2023-02-08T02:55:47.480Z,94.88867
2023-02-08T03:00:41.958Z,94.78516
2023-02-08T03:05:45.853Z,94.86816
2023-02-08T03:11:01.415Z,95.13574
2023-02-08T03:15:54.310Z,94.67578
2023-02-08T03:21:09.571Z,94.88965
2023-02-08T03:25:48.528Z,94.98047
2023-02-08T03:30:48.225Z,95.15039
2023-02-08T03:35:44.021Z,95.08984
2023-02-08T03:40:44.017Z,94.75781
2023-02-08T03:45:54.226Z,95.1084
2023-02-08T03:50:43.439Z,95.10449
2023-02-08T03:55:43.452Z,95.1748
2023-02-08T04:00:44.457Z,95.09863
2023-02-08T04:05:41.684Z,95.125
2023-02-08T04:10:41.806Z,95.16602
2023-02-08T04:15:41.300Z,95.20898
2023-02-08T04:20:43.269Z,94.98535
2023-02-08T04:25:42.452Z,95.00879
2023-02-08T04:30:44.135Z,95.0166
2023-02-08T04:35:41.502Z,95.37402
2023-02-08T04:40:43.917Z,94.90527
2023-02-08T04:45:45.691Z,94.98926
2023-02-08T04:50:48.865Z,95.02832
2023-02-08T04:55:42.462Z,95
2023-02-08T05:00:41.580Z,94.96875
2023-02-08T05:05:41.191Z,95.08203
2023-02-08T05:10:41.858Z,94.86035
2023-02-08T05:15:49.938Z,94.86035
2023-02-08T05:20:43.558Z,95.13672
2023-02-08T05:25:42.386Z,94.99805
2023-02-08T05:30:42.087Z,95.11426
2023-02-08T05:35:41.261Z,94.81152
2023-02-08T05:40:44.439Z,94.75684
2023-02-08T05:45:41.202Z,94.79785
2023-02-08T05:50:44.708Z,94.7832
2023-02-08T05:55:45.569Z,94.72168
2023-02-08T06:00:41.655Z,94.86719
2023-02-08T06:05:43.223Z,94.94824
2023-02-08T06:10:42.027Z,94.95898
2023-02-08T06:15:41.237Z,94.67676
2023-02-08T06:20:42.903Z,94.98047
2023-02-08T06:25:44.168Z,94.56348
2023-02-08T06:30:41.773Z,94.66699
2023-02-08T06:35:41.285Z,94.47363
2023-02-08T06:40:41.557Z,94.85254
2023-02-08T06:45:47.958Z,94.83398
2023-02-08T06:50:45.506Z,94.80078
2023-02-08T06:55:41.219Z,94.88477
2023-02-08T07:00:45.044Z,95.02051
2023-02-08T07:05:49.467Z,94.9209
2023-02-08T07:10:46.293Z,94.93555
2023-02-08T07:15:42.617Z,94.69141
2023-02-08T07:20:46.239Z,94.71484
2023-02-08T07:25:46.078Z,94.94141
2023-02-08T07:30:42.509Z,94.75293
2023-02-08T07:35:44.351Z,94.85352
2023-02-08T07:40:49.703Z,95.08008
2023-02-08T07:45:45.891Z,94.99805
2023-02-08T07:50:41.701Z,94.87988
2023-02-08T07:55:44.269Z,94.78125
2023-02-08T08:00:45.966Z,94.8457
2023-02-08T08:05:43.928Z,94.96191
2023-02-08T08:10:41.597Z,94.82324
2023-02-08T08:15:41.421Z,94.61426
2023-02-08T08:20:43.652Z,94.54688
2023-02-08T08:25:42.009Z,94.29785
2023-02-08T08:30:41.881Z,94.41113
2023-02-08T08:35:42.363Z,94.27344
2023-02-08T08:40:50.170Z,93.03613
2023-02-08T08:45:41.543Z,92.85938
2023-02-08T08:50:43.102Z,91.99609
2023-02-08T08:55:41.344Z,91.34473
2023-02-08T09:00:42.614Z,90.73535
2023-02-08T09:05:44.194Z,90.375
2023-02-08T09:10:41.964Z,89.72559
2023-02-08T09:15:42.137Z,88.97949
2023-02-08T09:20:44.730Z,88.72852
2023-02-08T09:25:41.103Z,87.85449
2023-02-08T09:30:41.765Z,86.74219
2023-02-08T09:35:43.791Z,85.92578
2023-02-08T09:40:50.368Z,85.66309
2023-02-08T09:45:57.906Z,85.0166
2023-02-08T09:50:44.392Z,84.64551
2023-02-08T09:55:45.404Z,85.41016
2023-02-08T10:00:45.115Z,84.88477
2023-02-08T10:05:42.810Z,83.78711
2023-02-08T10:10:47.497Z,83.54395
2023-02-08T10:15:48.463Z,81.28027
2023-02-08T10:20:51.355Z,80.1709
2023-02-08T10:25:55.840Z,79.90234
2023-02-08T10:30:57.140Z,80.4375
2023-02-08T10:35:51.295Z,79.14648
2023-02-08T10:40:49.438Z,79.18652
2023-02-08T10:45:46.506Z,78.04883
2023-02-08T10:50:43.695Z,78.83008
2023-02-08T10:55:46.553Z,78.94434
2023-02-08T11:00:42.645Z,77.93262
2023-02-08T11:05:45.006Z,77.50195
2023-02-08T11:10:50.085Z,77.21094
2023-02-08T11:15:43.881Z,76.64551
2023-02-08T11:20:51.560Z,76.72266
2023-02-08T11:25:43.013Z,76.88281
2023-02-08T11:30:41.130Z,76.74609
2023-02-08T11:35:54.836Z,76.3125
2023-02-08T11:40:50.472Z,76.0127
2023-02-08T11:45:41.584Z,76.14551
2023-02-08T11:50:44.536Z,75.77734
2023-02-08T11:55:46.172Z,75.95117
2023-02-08T12:00:44.718Z,75.36816
2023-02-08T12:05:46.516Z,75.76855
2023-02-08T12:10:51.047Z,76.33789
2023-02-08T12:15:57.867Z,76.38965
2023-02-08T12:20:43.865Z,76.02246
2023-02-08T12:25:51.710Z,75.58105
2023-02-08T12:30:45.104Z,76.90918
2023-02-08T12:36:03.950Z,76.83203
2023-02-08T12:40:55.631Z,77.00488
2023-02-08T12:45:50.349Z,76.50684
2023-02-08T12:50:45.517Z,76.15625
2023-02-08T12:55:47.142Z,76.87891
2023-02-08T13:00:44.882Z,76.19531
2023-02-08T13:06:01.337Z,76.44629
2023-02-08T13:10:43.291Z,76.17871
2023-02-08T13:15:52.058Z,76.02734
2023-02-08T13:20:43.816Z,76.14355
2023-02-08T13:25:41.910Z,76.00098
2023-02-08T13:30:42.203Z,76.28809
2023-02-08T13:35:46.614Z,76.37109
2023-02-08T13:40:43.868Z,76.2373
2023-02-08T13:45:48.777Z,75.50391
2023-02-08T13:50:59.165Z,74.81445
2023-02-08T13:55:58.506Z,74.98145
2023-02-08T14:00:41.883Z,73.07617
2023-02-08T14:05:47.064Z,73.57813
2023-02-08T14:10:46.156Z,71.16992
2023-02-08T14:15:43.353Z,72.63086
2023-02-08T14:20:44.065Z,72.14746
2023-02-08T14:25:53.012Z,72.79395
2023-02-08T14:30:47.389Z,70.94434
2023-02-08T14:35:43.094Z,71.43262
2023-02-08T14:40:53.424Z,71.26172
2023-02-08T14:45:46.543Z,71.76953
2023-02-08T14:50:55.476Z,71.08105
2023-02-08T14:55:50.505Z,72.3291
2023-02-08T15:00:45.980Z,72.24023
2023-02-08T15:05:48.618Z,71.95801
2023-02-08T15:10:55.312Z,71.24023
2023-02-08T15:15:43.755Z,70.95215
2023-02-08T15:20:46.178Z,72.03711
2023-02-08T15:25:44.461Z,72.23438
2023-02-08T15:30:52.605Z,72.95508
2023-02-08T15:35:43.081Z,73.02051
2023-02-08T15:40:44.543Z,73.79297
2023-02-08T15:45:41.507Z,73.75879
2023-02-08T15:50:41.660Z,74.90918
2023-02-08T15:55:43.933Z,76.08789
2023-02-08T16:00:41.861Z,77.85938
2023-02-08T16:05:54.907Z,79.68066
2023-02-08T16:10:45.877Z,80.47559
2023-02-08T16:15:55.589Z,84.45508
2023-02-08T16:20:44.691Z,85.97754
2023-02-08T16:25:49.204Z,87.76953
2023-02-08T16:30:41.547Z,88.47949
2023-02-08T16:35:42.576Z,88.78613
2023-02-08T16:40:59.077Z,89.16016
2023-02-08T16:45:46.526Z,89.64941
2023-02-08T16:50:42.939Z,89.1875
2023-02-08T16:55:43.619Z,89.73242
2023-02-08T17:00:41.259Z,90.05957
2023-02-08T17:05:47.726Z,89.89941
2023-02-08T17:10:42.559Z,89.95996
2023-02-08T17:15:45.691Z,90.2793
2023-02-08T17:20:41.294Z,90.19141
2023-02-08T17:25:45.921Z,89.83496
2023-02-08T17:30:47.212Z,90.55957
2023-02-08T17:35:49.899Z,90.64844
2023-02-08T17:40:41.078Z,91.00781
2023-02-08T17:45:44.047Z,90.55957
2023-02-08T17:50:54.430Z,90.06445
2023-02-08T17:55:44.776Z,89.85742
2023-02-08T18:00:44.401Z,89.92676
2023-02-08T18:05:41.436Z,89.41602
2023-02-08T18:10:42.527Z,90.34277
2023-02-08T18:15:43.992Z,90.19922
2023-02-08T18:20:41.052Z,90.16504
2023-02-08T18:25:41.307Z,89.7627
2023-02-08T18:30:43.745Z,89.90723
2023-02-08T18:35:41.737Z,89.6748
2023-02-08T18:40:41.008Z,89.94141
2023-02-08T18:45:41.254Z,89.91797
2023-02-08T18:50:40.926Z,89.84473
2023-02-08T18:55:43.715Z,90.46387
2023-02-08T19:00:42.785Z,90.68066
2023-02-08T19:05:44.571Z,91.0293
2023-02-08T19:10:47.369Z,91.36035
2023-02-08T19:15:44.785Z,91.41895
2023-02-08T19:20:50.470Z,91.41992
2023-02-08T19:25:46.070Z,91.11914
2023-02-08T19:30:41.260Z,91.04785
2023-02-08T19:35:44.264Z,91.43848
2023-02-08T19:40:51.923Z,90.72852
2023-02-08T19:45:52.297Z,90.7041
2023-02-08T19:50:42.641Z,90.49805
2023-02-08T19:56:01.929Z,91.02832
2023-02-08T20:10:50.707Z,90.8457
2023-02-08T20:15:44.285Z,91.22266
2023-02-08T20:20:44.744Z,90.84082
2023-02-08T20:25:43.820Z,90.89063
2023-02-08T20:30:46.574Z,90.44141
2023-02-08T20:35:53.246Z,91.33203
2023-02-08T20:40:44.894Z,91.10938
2023-02-08T20:46:04.605Z,91.06543
2023-02-08T20:51:18.417Z,91.09277
2023-02-08T20:55:59.467Z,90.70605
2023-02-08T21:01:07.994Z,90.51465
2023-02-08T21:05:51.263Z,90.41016
2023-02-08T21:10:47.872Z,90.97949
2023-02-08T21:15:50.987Z,90.54102
2023-02-08T21:27:11.014Z,90.54004
2023-02-08T21:32:10.679Z,90.70508
2023-02-08T21:36:50.434Z,90.66309
2023-02-08T21:41:58.393Z,90.35645
2023-02-08T21:46:59.804Z,90.45605
2023-02-08T21:51:58.248Z,90.62109
2023-02-08T21:56:56.462Z,90.4248
2023-02-08T22:01:56.635Z,90.92383
2023-02-08T22:06:52.940Z,90.69043
2023-02-08T22:11:46.745Z,90.53223
2023-02-08T22:17:02.775Z,90.56738
2023-02-08T22:21:49.861Z,90.46484
2023-02-08T22:26:49.830Z,90.56348
2023-02-08T22:31:46.792Z,90.12109
2023-02-08T22:37:07.422Z,90.25879
2023-02-08T22:41:49.034Z,90.25781
2023-02-08T22:46:46.878Z,90.15527
2023-02-08T22:51:48.008Z,90.11914
2023-02-08T22:56:46.706Z,90.0332
2023-02-08T23:01:47.005Z,90.04688
2023-02-08T23:06:48.610Z,90.07031
2023-02-08T23:11:48.847Z,90.1084
2023-02-08T23:16:46.665Z,90.39063
2023-02-08T23:21:46.703Z,90.59668
2023-02-08T23:26:49.793Z,90.1875
2023-02-08T23:31:46.944Z,90.4541
2023-02-08T23:36:49.211Z,90.06934
2023-02-08T23:41:48.949Z,89.92676
2023-02-08T23:46:46.636Z,89.75293
2023-02-08T23:51:48.964Z,89.65234
2023-02-08T23:56:46.526Z,89.74707
